Payson, Arizona
Current Conditions -  °F | °C
As of 2:35 PM on Thursday 18 Dec 2014 (Local Time) from KPAN Reporting Station
Broken Clouds Broken Clouds  
Wind Chill: 36°   Ceiling: 2200
Heat Index: 41°   Visibility: 9mi
Dew Point: 34°   Wind: 8mph
Humidity: 76%   Direction: 310°NW
Pressure: 30.11"   Gusts: NA
Location:  34.23°N, 111.32°W
Report Text: KPAN 182135Z AUTO 31007KT 9SM BKN022 BKN029 BKN050 05/01 A3011 RMK AO2
Loading
Personal Weather Stations






























Interactive Weather Map New forecast layout! Learn more

10-Day Weather Forecast

Advertisements
Track Severe Weather on mobile